Time;durP1;ratioP1;P1;durP2;ratioP2;P2;SDS_P1;SDS_P2;PMS_P1;PMS_P2;Temp;Humidity;BMP_temperature;BMP_pressure;BME280_temperature;BME280_humidity;BME280_pressure;Samples;Min_cycle;Max_cycle;Signal;HPM_P1;HPM_P2
2022/01/03 00:00:09;;;;;;;0.60;0.60;;;;;;;10.92;66.98;100226.25;679564;29;13794;-73
2022/01/03 00:00:34;;;;;;;0.60;0.60;;;;;;;10.93;66.96;100230.63;676891;29;115144;-74
2022/01/03 00:00:56;;;;;;;0.90;0.90;;;;;;;10.92;66.65;100228.94;678337;28;92357;-73
2022/01/03 00:01:19;;;;;;;3.80;3.70;;;;;;;10.93;66.89;100227.94;679370;29;46325;-74
2022/01/03 00:01:44;;;;;;;7.63;7.43;;;;;;;10.95;66.89;100228.56;678786;28;92258;-74
2022/01/03 00:02:05;;;;;;;4.47;4.35;;;;;;;10.95;67.05;100224.00;677569;28;114968;-73
2022/01/03 00:02:28;;;;;;;5.88;5.68;;;;;;;10.94;67.05;100222.34;680889;28;21517;-73
2022/01/03 00:02:50;;;;;;;4.78;4.68;;;;;;;10.92;66.88;100229.78;678670;28;67485;-73
2022/01/03 00:03:19;;;;;;;1.70;1.70;;;;;;;10.98;67.04;100220.91;676065;29;137732;-74
2022/01/03 00:03:41;;;;;;;2.33;2.22;;;;;;;11.00;66.98;100220.72;680216;28;22512;-73
2022/01/03 00:04:03;;;;;;;9.77;9.38;;;;;;;11.02;66.88;100220.53;678546;29;46685;-72
2022/01/03 00:04:25;;;;;;;9.10;8.77;;;;;;;11.00;66.83;100218.88;682411;28;1971;-74
2022/01/03 00:04:53;;;;;;;2.35;2.25;;;;;;;11.04;66.80;100222.00;677401;28;137878;-73
2022/01/03 00:05:14;;;;;;;0.80;0.80;;;;;;;11.04;66.88;100226.59;679366;29;45239;-73
2022/01/03 00:05:35;;;;;;;0.70;0.70;;;;;;;11.04;66.75;100215.78;680227;28;22282;-73
2022/01/03 00:06:05;;;;;;;0.80;0.80;;;;;;;11.03;66.80;100223.03;680829;28;22473;-73
2022/01/03 00:06:28;;;;;;;0.57;0.57;;;;;;;11.04;66.71;100213.09;679290;28;60380;-73
2022/01/03 00:06:51;;;;;;;0.77;0.77;;;;;;;11.05;66.68;100218.28;679716;28;44409;-75
2022/01/03 00:07:12;;;;;;;1.15;1.15;;;;;;;11.05;66.43;100214.72;678976;29;69447;-73
2022/01/03 00:07:36;;;;;;;1.00;1.00;;;;;;;11.04;66.49;100213.09;682479;28;22396;-74
2022/01/03 00:07:59;;;;;;;1.20;1.20;;;;;;;11.03;66.54;100212.22;680510;28;90770;-73
2022/01/03 00:08:20;;;;;;;1.40;1.40;;;;;;;11.03;66.83;100214.09;680317;28;69331;-73
2022/01/03 00:08:42;;;;;;;1.27;1.27;;;;;;;11.01;66.54;100208.88;682765;28;22421;-73
2022/01/03 00:09:05;;;;;;;1.10;1.10;;;;;;;11.00;66.51;100215.31;679584;28;45277;-74
2022/01/03 00:09:26;;;;;;;1.27;1.27;;;;;;;10.98;66.42;100210.09;680594;28;46397;-73
2022/01/03 00:09:47;;;;;;;17.05;16.33;;;;;;;10.99;66.63;100213.66;677697;29;46395;-73
2022/01/03 00:10:10;;;;;;;24.35;23.27;;;;;;;10.99;66.77;100219.06;679237;29;21615;-73
2022/01/03 00:10:33;;;;;;;0.65;0.65;;;;;;;10.99;66.67;100206.38;677104;29;69446;-73
2022/01/03 00:10:54;;;;;;;0.75;0.75;;;;;;;11.00;66.72;100209.91;676484;29;44710;-72
2022/01/03 00:11:17;;;;;;;0.80;0.80;;;;;;;11.02;66.69;100209.72;676692;29;44376;-73
2022/01/03 00:11:40;;;;;;;0.73;0.73;;;;;;;11.01;66.89;100206.19;677043;29;67524;-72
2022/01/03 00:12:02;;;;;;;0.80;0.80;;;;;;;10.99;66.61;100198.28;673885;29;69987;-72
2022/01/03 00:12:23;;;;;;;0.93;0.93;;;;;;;11.02;66.96;100204.31;674838;29;22544;-74
2022/01/03 00:12:46;;;;;;;0.80;0.80;;;;;;;11.02;66.58;100205.16;675243;29;45399;-73
2022/01/03 00:13:07;;;;;;;0.70;0.70;;;;;;;11.00;66.38;100199.97;676539;29;68321;-72
2022/01/03 00:13:28;;;;;;;0.70;0.70;;;;;;;10.99;66.41;100209.06;677725;29;22412;-72
2022/01/03 00:13:50;;;;;;;0.95;0.95;;;;;;;10.99;66.89;100208.25;679416;28;21335;-74
2022/01/03 00:14:12;;;;;;;1.00;1.00;;;;;;;10.99;66.75;100203.69;656019;28;66057;-73
2022/01/03 00:14:34;;;;;;;0.85;0.85;;;;;;;10.98;66.68;100203.88;682306;28;45365;-73
2022/01/03 00:14:56;;;;;;;0.82;0.82;;;;;;;10.98;66.46;100206.56;682538;28;46393;-73
2022/01/03 00:15:18;;;;;;;2.35;2.30;;;;;;;11.00;66.98;100215.31;682840;28;22402;-73
2022/01/03 00:15:40;;;;;;;5.55;5.35;;;;;;;11.01;66.73;100203.47;680540;28;69397;-72
2022/01/03 00:16:01;;;;;;;5.53;5.32;;;;;;;11.04;66.69;100202.28;681655;28;44402;-73
2022/01/03 00:16:24;;;;;;;4.63;4.43;;;;;;;11.04;66.78;100200.41;682592;28;22036;-72
2022/01/03 00:16:45;;;;;;;15.50;14.82;;;;;;;11.03;66.52;100197.88;679630;29;39510;-76
2022/01/03 00:17:07;;;;;;;11.65;11.18;;;;;;;11.02;66.67;100202.47;680684;28;23474;-72
2022/01/03 00:17:29;;;;;;;1.25;1.25;;;;;;;11.02;66.75;100201.59;679585;28;45033;-73
2022/01/03 00:17:53;;;;;;;0.88;0.88;;;;;;;11.02;66.73;100198.91;679769;28;15693;-73
2022/01/03 00:18:14;;;;;;;1.70;1.70;;;;;;;11.00;66.28;100199.09;677466;29;69300;-72
2022/01/03 00:18:37;;;;;;;1.45;1.45;;;;;;;11.02;66.52;100197.06;677419;29;45216;-73
2022/01/03 00:18:58;;;;;;;1.10;1.10;;;;;;;11.01;66.64;100198.09;678701;28;45241;-72
2022/01/03 00:19:19;;;;;;;1.20;1.20;;;;;;;11.01;66.62;100195.38;680078;29;21553;-72
2022/01/03 00:19:40;;;;;;;1.10;1.10;;;;;;;11.01;66.37;100189.97;680403;28;22405;-73
2022/01/03 00:20:02;;;;;;;1.05;1.05;;;;;;;10.99;66.67;100200.16;680813;28;21534;-73
2022/01/03 00:20:25;;;;;;;1.00;1.00;;;;;;;11.03;66.85;100195.19;679614;29;45137;-72
2022/01/03 00:20:53;;;;;;;6.97;6.70;;;;;;;11.04;66.75;100196.88;677955;28;90356;-73
2022/01/03 00:21:17;;;;;;;24.95;23.90;;;;;;;11.08;66.76;100196.28;678130;29;71803;-72
2022/01/03 00:21:43;;;;;;;56.20;53.75;;;;;;;11.10;66.91;100196.91;677842;28;92277;-72
2022/01/03 00:22:11;;;;;;;52.00;49.70;;;;;;;11.09;66.66;100186.31;675813;28;160939;-73
2022/01/03 00:22:39;;;;;;;86.45;82.60;;;;;;;11.11;66.77;100195.03;675526;28;161657;-72
2022/01/03 00:23:02;;;;;;;74.10;70.90;;;;;;;11.10;66.53;100193.41;676403;28;136404;-72
2022/01/03 00:23:26;;;;;;;69.05;66.03;;;;;;;11.09;66.57;100187.13;678887;29;68425;-73
2022/01/03 00:23:49;;;;;;;68.60;65.65;;;;;;;11.10;66.55;100188.00;677014;29;115714;-73
2022/01/03 00:24:12;;;;;;;34.42;32.95;;;;;;;11.09;66.29;100187.13;677592;28;68481;-73
2022/01/03 00:24:35;;;;;;;30.25;29.00;;;;;;;11.07;66.21;100177.56;678938;28;69670;-73
2022/01/03 00:25:00;;;;;;;20.65;19.83;;;;;;;11.06;66.63;100176.72;679259;28;69454;-72
2022/01/03 00:25:24;;;;;;;5.00;4.82;;;;;;;11.06;66.62;100182.13;677230;29;115012;-74
2022/01/03 00:25:50;;;;;;;0.90;0.90;;;;;;;11.08;66.74;100181.91;680400;28;67679;-74
2022/01/03 00:26:12;;;;;;;0.93;0.93;;;;;;;11.06;66.52;100176.72;678856;28;138194;-74
2022/01/03 00:26:35;;;;;;;1.10;1.10;;;;;;;11.07;66.38;100180.25;682342;28;46686;-73
2022/01/03 00:27:02;;;;;;;1.60;1.60;;;;;;;11.06;66.40;100192.91;681015;28;68166;-72
2022/01/03 00:27:28;;;;;;;2.00;2.00;;;;;;;11.07;66.61;100183.78;678799;28;137611;-73
2022/01/03 00:27:54;;;;;;;24.85;23.85;;;;;;;11.05;66.38;100172.34;676143;28;137864;-73
2022/01/03 00:28:21;;;;;;;7.22;6.97;;;;;;;11.06;66.52;100176.72;675265;29;137950;-72
2022/01/03 00:28:50;;;;;;;5.47;5.28;;;;;;;11.07;66.35;100185.66;673535;29;137117;-74
2022/01/03 00:29:16;;;;;;;40.08;38.33;;;;;;;11.08;66.77;100182.78;670793;29;161815;-72
2022/01/03 00:29:43;;;;;;;103.90;98.90;;;;;;;11.10;66.61;100182.59;673610;29;138177;-72
2022/01/03 00:30:05;;;;;;;54.28;51.75;;;;;;;11.11;66.79;100182.38;673043;29;159237;-73
2022/01/03 00:30:26;;;;;;;13.48;12.93;;;;;;;11.11;66.60;100179.69;676212;29;67455;-72
2022/01/03 00:30:50;;;;;;;148.50;141.05;;;;;;;11.09;66.61;100176.31;677423;29;21548;-74
2022/01/03 00:31:12;;;;;;;165.35;157.50;;;;;;;11.10;66.40;100185.28;677228;29;92283;-73
2022/01/03 00:31:35;;;;;;;101.80;97.10;;;;;;;11.12;66.43;100184.03;678385;28;44411;-72
2022/01/03 00:31:56;;;;;;;12.20;11.68;;;;;;;11.12;66.45;100188.63;679325;28;45445;-73
2022/01/03 00:32:21;;;;;;;2.22;2.13;;;;;;;11.12;66.49;100175.94;681042;28;1233;-73
2022/01/03 00:32:44;;;;;;;2.80;2.70;;;;;;;11.11;66.74;100174.28;676833;28;113640;-73
2022/01/03 00:33:06;;;;;;;2.05;1.95;;;;;;;11.12;66.43;100181.34;679376;28;46307;-73
2022/01/03 00:33:27;;;;;;;1.58;1.58;;;;;;;11.16;66.64;100184.50;677143;29;46384;-73
2022/01/03 00:33:51;;;;;;;1.70;1.70;;;;;;;11.21;66.76;100179.34;676339;29;45071;-72
2022/01/03 00:34:14;;;;;;;1.60;1.60;;;;;;;11.20;66.63;100180.38;673942;29;110973;-73
2022/01/03 00:34:36;;;;;;;1.33;1.33;;;;;;;11.21;66.43;100189.31;674288;29;44380;-73
2022/01/03 00:34:58;;;;;;;2.03;1.92;;;;;;;11.23;66.46;100181.84;675248;29;44402;-72
2022/01/03 00:35:20;;;;;;;1.42;1.42;;;;;;;11.25;66.74;100177.91;678362;29;46427;-72
2022/01/03 00:35:42;;;;;;;1.30;1.30;;;;;;;11.26;66.47;100176.06;678707;28;67301;-72
2022/01/03 00:36:04;;;;;;;1.30;1.30;;;;;;;11.23;66.20;100176.44;680274;28;24244;-72
2022/01/03 00:36:27;;;;;;;1.52;1.52;;;;;;;11.25;66.41;100174.38;680149;28;46474;-74
2022/01/03 00:36:51;;;;;;;1.70;1.70;;;;;;;11.29;66.33;100170.25;677678;29;92270;-73
2022/01/03 00:37:12;;;;;;;42.63;40.83;;;;;;;11.28;66.44;100179.41;675100;29;90182;-75
2022/01/03 00:37:35;;;;;;;87.13;83.32;;;;;;;11.24;66.42;100168.16;677188;29;46714;-75
2022/01/03 00:38:10;;;;;;;105.90;101.13;;;;;;;11.26;66.27;100170.66;671622;29;115189;-75
2022/01/03 00:38:37;;;;;;;195.50;185.68;;;;;;;11.29;66.07;100171.09;674219;29;60467;-75
2022/01/03 00:38:59;;;;;;;173.18;164.77;;;;;;;11.27;66.01;100165.06;675837;29;45276;-74
2022/01/03 00:39:20;;;;;;;109.43;104.43;;;;;;;11.26;65.92;100170.66;677923;29;21357;-74
2022/01/03 00:39:41;;;;;;;91.90;87.93;;;;;;;11.27;66.26;100169.59;678776;29;22315;-75
2022/01/03 00:40:04;;;;;;;60.13;57.55;;;;;;;11.27;66.26;100164.19;681294;28;21431;-75
2022/01/03 00:40:25;;;;;;;8.90;8.60;;;;;;;11.26;65.91;100163.38;677042;29;67505;-73
2022/01/03 00:40:47;;;;;;;33.67;32.28;;;;;;;11.25;66.19;100174.38;677790;29;46314;-74
2022/01/03 00:41:08;;;;;;;52.88;50.58;;;;;;;11.22;65.91;100164.78;677308;29;22142;-75
2022/01/03 00:41:30;;;;;;;45.45;43.50;;;;;;;11.20;66.28;100157.91;677825;29;21482;-75
2022/01/03 00:41:51;;;;;;;60.58;57.92;;;;;;;11.21;66.08;100162.28;675277;29;44334;-75
2022/01/03 00:42:13;;;;;;;108.55;103.75;;;;;;;11.21;66.02;100173.94;677110;29;1719;-75
2022/01/03 00:42:34;;;;;;;95.82;91.63;;;;;;;11.18;66.17;100164.34;678023;29;31653;-74
2022/01/03 00:42:56;;;;;;;107.45;102.75;;;;;;;11.18;66.33;100164.34;679272;29;22408;-75
2022/01/03 00:43:18;;;;;;;64.38;61.58;;;;;;;11.18;66.07;100163.53;680658;29;46402;-74
2022/01/03 00:43:39;;;;;;;54.22;51.83;;;;;;;11.17;66.28;100173.50;680925;28;21513;-75
2022/01/03 00:44:00;;;;;;;77.35;73.97;;;;;;;11.21;66.35;100168.53;678741;28;22484;-74
2022/01/03 00:44:23;;;;;;;65.53;62.70;;;;;;;11.22;66.33;100162.06;679555;29;46467;-74
2022/01/03 00:44:46;;;;;;;95.45;91.30;;;;;;;11.21;66.40;100168.53;679731;29;45281;-75
2022/01/03 00:45:07;;;;;;;80.97;77.45;;;;;;;11.23;66.43;100162.94;678416;29;69401;-74
2022/01/03 00:45:29;;;;;;;102.28;97.82;;;;;;;11.23;66.34;100163.75;678139;29;21527;-74
2022/01/03 00:45:52;;;;;;;128.35;122.65;;;;;;;11.23;66.59;100163.75;677998;28;44222;-73
2022/01/03 00:46:14;;;;;;;104.60;99.97;;;;;;;11.25;66.51;100167.09;676278;29;67516;-75
2022/01/03 00:46:35;;;;;;;48.58;46.45;;;;;;;11.28;66.45;100171.28;675748;29;69256;-75
2022/01/03 00:46:57;;;;;;;41.20;39.40;;;;;;;11.27;66.20;100165.06;676035;29;22416;-74
2022/01/03 00:47:19;;;;;;;42.72;40.85;;;;;;;11.27;66.27;100156.94;674927;29;44958;-75
2022/01/03 00:47:40;;;;;;;46.53;44.50;;;;;;;11.26;66.17;100163.38;673020;29;45397;-75
2022/01/03 00:48:06;;;;;;;45.92;43.92;;;;;;;11.26;66.27;100162.53;674069;29;22422;-75
2022/01/03 00:48:27;;;;;;;56.90;54.45;;;;;;;11.25;66.50;100168.97;672648;29;92726;-75
2022/01/03 00:48:49;;;;;;;78.30;74.90;;;;;;;11.25;66.32;100152.75;673820;29;22434;-75
2022/01/03 00:49:10;;;;;;;68.85;65.82;;;;;;;11.22;66.17;100159.38;671761;29;69300;-73
2022/01/03 00:49:31;;;;;;;61.65;58.92;;;;;;;11.22;66.02;100166.66;676736;29;23285;-74
2022/01/03 00:49:52;;;;;;;82.72;79.13;;;;;;;11.21;66.01;100163.13;677568;29;23213;-75
2022/01/03 00:50:16;;;;;;;28.35;27.13;;;;;;;11.22;66.36;100163.94;676509;29;22399;-75
2022/01/03 00:50:38;;;;;;;46.22;44.22;;;;;;;11.23;66.43;100168.34;672482;29;92366;-75
2022/01/03 00:51:01;;;;;;;46.75;44.75;;;;;;;11.24;66.51;100160.03;677191;29;23472;-74
2022/01/03 00:51:22;;;;;;;73.05;69.95;;;;;;;11.23;66.51;100168.34;676643;29;92340;-72
2022/01/03 00:51:45;;;;;;;97.18;93.03;;;;;;;11.22;66.51;100161.25;676208;29;22358;-75
2022/01/03 00:52:07;;;;;;;98.68;94.45;;;;;;;11.21;66.34;100165.84;676407;29;46281;-75
2022/01/03 00:52:28;;;;;;;93.00;88.95;;;;;;;11.21;66.41;100162.28;676065;29;45218;-75
2022/01/03 00:52:50;;;;;;;9.30;8.95;;;;;;;11.24;66.42;100167.28;678123;29;23598;-74
2022/01/03 00:53:11;;;;;;;33.30;31.92;;;;;;;11.22;66.52;100163.94;676157;29;69485;-75
2022/01/03 00:53:33;;;;;;;57.25;54.80;;;;;;;11.26;66.47;100162.53;678647;29;23494;-75
2022/01/03 00:53:55;;;;;;;67.40;64.50;;;;;;;11.28;66.61;100164.00;675382;29;46231;-75
2022/01/03 00:54:16;;;;;;;74.40;71.15;;;;;;;11.27;66.26;100167.75;678702;29;23493;-75
2022/01/03 00:54:37;;;;;;;67.32;64.43;;;;;;;11.25;66.64;100174.38;680720;28;22378;-75
2022/01/03 00:54:59;;;;;;;36.13;34.58;;;;;;;11.32;66.75;100161.75;682412;28;46638;-75
2022/01/03 00:55:20;;;;;;;24.08;23.08;;;;;;;11.31;66.42;100160.09;678441;29;46987;-75
2022/01/03 00:55:55;;;;;;;51.63;49.40;;;;;;;11.29;66.48;100165.69;677976;29;21499;-75
2022/01/03 00:56:20;;;;;;;66.18;63.28;;;;;;;11.29;66.74;100164.84;674047;29;137460;-73
2022/01/03 00:56:46;;;;;;;70.03;67.03;;;;;;;11.29;66.52;100171.09;673768;29;78709;-75
2022/01/03 00:57:12;;;;;;;61.95;59.25;;;;;;;11.30;66.72;100159.25;672221;29;136406;-75
2022/01/03 00:57:44;;;;;;;92.80;88.82;;;;;;;11.27;66.54;100147.97;672802;29;138216;-72
2022/01/03 00:58:08;;;;;;;60.13;57.53;;;;;;;11.29;66.62;100162.16;674288;29;137770;-72
2022/01/03 00:58:35;;;;;;;38.65;36.97;;;;;;;11.31;66.70;100165.50;676449;28;113567;-74
2022/01/03 00:59:00;;;;;;;22.83;21.88;;;;;;;11.32;66.81;100164.47;676088;28;136128;-75
2022/01/03 00:59:25;;;;;;;12.20;11.75;;;;;;;11.30;66.71;100164.66;677922;29;92312;-73
2022/01/03 00:59:56;;;;;;;30.70;29.42;;;;;;;11.30;66.92;100166.50;677533;29;113681;-75
2022/01/03 01:00:18;;;;;;;21.50;20.63;;;;;;;11.32;66.95;100159.88;676801;29;137496;-74
2022/01/03 01:00:41;;;;;;;11.48;11.07;;;;;;;11.31;66.69;100163.63;679846;28;46466;-74
2022/01/03 01:01:04;;;;;;;5.78;5.57;;;;;;;11.30;66.76;100163.81;677724;28;91200;-72
2022/01/03 01:01:28;;;;;;;6.03;5.82;;;;;;;11.29;66.75;100160.28;674974;29;45239;-74
2022/01/03 01:01:50;;;;;;;19.33;18.55;;;;;;;11.27;66.93;100158.78;670420;29;92216;-71
2022/01/03 01:02:13;;;;;;;19.40;18.60;;;;;;;11.26;66.93;100157.97;671454;29;67484;-75
2022/01/03 01:02:38;;;;;;;20.15;19.33;;;;;;;11.29;66.85;100162.97;673319;29;92362;-74
2022/01/03 01:03:09;;;;;;;50.85;48.65;;;;;;;11.29;66.92;100159.44;673253;29;92074;-74
2022/01/03 01:03:33;;;;;;;41.50;39.72;;;;;;;11.28;67.17;100163.19;674463;29;137612;-74
2022/01/03 01:03:56;;;;;;;33.10;31.67;;;;;;;11.25;66.89;100164.38;676469;28;115203;-74
2022/01/03 01:04:20;;;;;;;29.92;28.65;;;;;;;11.22;67.11;100156.66;676451;29;46779;-74
2022/01/03 01:04:46;;;;;;;18.23;17.52;;;;;;;11.20;67.05;100155.22;674280;29;136331;-74
2022/01/03 01:05:07;;;;;;;29.48;28.25;;;;;;;11.17;67.02;100149.19;679517;29;45223;-74
2022/01/03 01:05:28;;;;;;;31.52;30.27;;;;;;;11.19;67.40;100162.50;680177;28;21353;-75
2022/01/03 01:05:52;;;;;;;26.02;25.02;;;;;;;11.22;67.52;100164.78;678037;29;22337;-75
2022/01/03 01:06:13;;;;;;;24.58;23.60;;;;;;;11.23;67.37;100160.22;677497;29;92543;-73
2022/01/03 01:06:36;;;;;;;22.80;21.90;;;;;;;11.22;67.64;100161.25;680173;28;46323;-75
2022/01/03 01:06:59;;;;;;;25.23;24.20;;;;;;;11.24;67.54;100162.75;678819;28;69287;-75
2022/01/03 01:07:21;;;;;;;27.20;26.10;;;;;;;11.23;67.30;100161.06;677766;29;69438;-75
2022/01/03 01:07:44;;;;;;;27.23;26.13;;;;;;;11.21;67.40;100156.88;677657;29;45068;-75
2022/01/03 01:08:05;;;;;;;8.35;8.05;;;;;;;11.22;67.33;100156.66;677234;29;45295;-72
2022/01/03 01:08:28;;;;;;;25.98;24.98;;;;;;;11.23;67.51;100152.13;674850;29;44261;-75
2022/01/03 01:09:03;;;;;;;46.95;44.97;;;;;;;11.25;67.34;100155.47;674020;29;68393;-76
2022/01/03 01:09:26;;;;;;;27.83;26.55;;;;;;;11.23;67.69;100154.81;663450;29;79919;-73
2022/01/03 01:10:24;;;;;;;21.38;20.50;;;;;;;11.25;67.80;100158.16;674314;29;35909;-75
2022/01/03 01:11:03;;;;;;;15.05;14.30;;;;;;;11.26;67.78;100152.56;676877;29;59777;-75
2022/01/03 01:11:28;;;;;;;28.17;26.67;;;;;;;11.29;67.44;100151.34;679594;28;61448;-74
2022/01/03 01:11:53;;;;;;;14.68;14.07;;;;;;;11.32;67.68;100153.66;675934;29;67183;-75
2022/01/03 01:12:15;;;;;;;26.60;25.50;;;;;;;11.31;67.59;100139.28;673099;29;91792;-74
2022/01/03 01:12:36;;;;;;;18.75;17.95;;;;;;;11.33;67.60;100158.00;673329;29;23465;-74
2022/01/03 01:12:57;;;;;;;23.55;22.55;;;;;;;11.29;67.71;100149.47;671802;29;45054;-72
2022/01/03 01:13:22;;;;;;;40.17;38.47;;;;;;;11.29;67.61;100157.56;670801;29;67410;-74
2022/01/03 01:13:45;;;;;;;32.50;31.08;;;;;;;11.30;67.41;100150.28;670467;29;92287;-74
2022/01/03 01:14:07;;;;;;;35.65;34.13;;;;;;;11.28;67.46;100141.53;672061;29;46438;-74
2022/01/03 01:14:31;;;;;;;44.40;42.47;;;;;;;11.26;67.82;100152.56;676068;29;45237;-75
2022/01/03 01:14:55;;;;;;;7.15;6.85;;;;;;;11.23;67.52;100150.25;670865;29;115084;-74
2022/01/03 01:15:21;;;;;;;14.10;13.50;;;;;;;11.21;67.72;100156.88;673230;29;60723;-74
2022/01/03 01:15:48;;;;;;;15.32;14.63;;;;;;;11.24;68.03;100165.44;670393;29;160920;-75
2022/01/03 01:16:11;;;;;;;23.48;22.48;;;;;;;11.27;67.70;100151.53;671510;29;46408;-74
2022/01/03 01:16:40;;;;;;;35.85;34.30;;;;;;;11.27;68.06;100148.84;667660;29;137727;-75
2022/01/03 01:17:01;;;;;;;32.25;30.88;;;;;;;11.28;67.99;100152.38;675416;29;22418;-73
2022/01/03 01:17:26;;;;;;;14.98;14.40;;;;;;;11.28;67.94;100141.53;674443;29;44386;-75
2022/01/03 01:17:48;;;;;;;20.50;19.60;;;;;;;11.28;67.99;100155.88;674258;29;90558;-74
2022/01/03 01:18:11;;;;;;;22.58;21.60;;;;;;;11.26;67.99;100154.44;674771;29;69341;-74
2022/01/03 01:18:36;;;;;;;13.85;13.30;;;;;;;11.24;67.82;100157.34;673115;29;46447;-73
2022/01/03 01:18:59;;;;;;;3.30;3.20;;;;;;;11.24;68.03;100153.78;667702;29;135945;-71
2022/01/03 01:19:21;;;;;;;0.77;0.77;;;;;;;11.21;68.31;100146.06;670488;29;46477;-75
2022/01/03 01:19:45;;;;;;;0.47;0.47;;;;;;;11.20;68.13;100155.22;668480;29;115234;-73
2022/01/03 01:20:08;;;;;;;0.40;0.40;;;;;;;11.21;68.18;100156.88;673653;29;45264;-74
2022/01/03 01:20:32;;;;;;;0.30;0.30;;;;;;;11.24;68.17;100151.94;672853;29;92289;-74
2022/01/03 01:20:53;;;;;;;0.30;0.30;;;;;;;11.25;68.29;100141.94;674083;29;69692;-75
2022/01/03 01:21:15;;;;;;;0.60;0.60;;;;;;;11.26;68.25;100144.44;675098;29;22227;-75
2022/01/03 01:21:37;;;;;;;1.30;1.30;;;;;;;11.25;68.25;100145.47;675030;29;37642;-76
2022/01/03 01:21:59;;;;;;;1.60;1.50;;;;;;;11.23;68.39;100146.72;675926;29;36901;-74
2022/01/03 01:22:21;;;;;;;1.00;1.00;;;;;;;11.22;68.51;100142.34;674481;29;46352;-74
2022/01/03 01:22:42;;;;;;;1.10;1.10;;;;;;;11.21;68.55;100144.22;673666;29;47747;-75
2022/01/03 01:23:04;;;;;;;1.00;1.00;;;;;;;11.21;68.37;100149.63;676022;29;22101;-75
2022/01/03 01:23:25;;;;;;;1.00;1.00;;;;;;;11.15;68.54;100150.41;675746;29;1641;-73
2022/01/03 01:23:49;;;;;;;0.95;0.95;;;;;;;11.16;68.68;100166.41;674687;29;22392;-75
2022/01/03 01:24:11;;;;;;;1.73;1.63;;;;;;;11.16;68.73;100147.50;672088;29;115033;-75
2022/01/03 01:24:44;;;;;;;1.98;1.88;;;;;;;11.20;68.72;100155.22;676016;29;45305;-75
2022/01/03 01:27:48;;;;;;;1.23;1.23;;;;;;;11.20;68.51;100147.09;674411;29;137681;-75
2022/01/03 01:28:11;;;;;;;1.80;1.70;;;;;;;11.22;68.45;100145.03;675523;29;115182;-75
2022/01/03 01:28:32;;;;;;;1.50;1.50;;;;;;;11.22;68.75;100142.34;674237;29;45069;-76
2022/01/03 01:28:54;;;;;;;2.10;2.00;;;;;;;11.22;68.64;100150.44;672688;29;23470;-74
2022/01/03 01:29:15;;;;;;;2.20;2.10;;;;;;;11.21;68.76;100146.91;672083;29;21263;-75
2022/01/03 01:29:38;;;;;;;1.10;1.10;;;;;;;11.19;68.58;100148.97;674077;29;22475;-75
2022/01/03 01:30:00;;;;;;;2.72;2.63;;;;;;;11.21;68.79;100140.66;668884;29;115385;-75
2022/01/03 01:30:25;;;;;;;1.92;1.92;;;;;;;11.16;68.97;100143.97;673015;29;23008;-74
2022/01/03 01:30:48;;;;;;;1.27;1.27;;;;;;;11.18;68.85;100140.03;668275;29;113648;-74
2022/01/03 01:31:12;;;;;;;1.90;1.80;;;;;;;11.16;68.85;100139.38;670558;29;90751;-75
2022/01/03 01:31:34;;;;;;;1.90;1.80;;;;;;;11.11;69.14;100132.88;674832;29;45239;-75
2022/01/03 01:32:00;;;;;;;1.40;1.40;;;;;;;11.13;68.98;100145.19;675828;29;68508;-75
2022/01/03 01:32:21;;;;;;;1.80;1.77;;;;;;;11.13;68.94;100138.94;675322;29;137766;-76
2022/01/03 01:32:46;;;;;;;3.80;3.70;;;;;;;11.12;69.18;100135.41;679928;28;38609;-75
2022/01/03 01:33:12;;;;;;;1.77;1.77;;;;;;;11.09;69.10;100137.66;674978;29;115760;-75
2022/01/03 01:33:37;;;;;;;1.73;1.63;;;;;;;11.09;69.33;100137.66;670743;29;138846;-75
2022/01/03 01:34:03;;;;;;;1.90;1.80;;;;;;;11.08;69.36;100142.25;676647;29;92271;-75
2022/01/03 01:36:03;;;;;;;3.75;3.63;;;;;;;11.00;69.69;100134.25;676258;28;61027;-73
2022/01/03 01:36:28;;;;;;;3.80;3.63;;;;;;;11.01;69.83;100133.22;675601;29;138022;-73
2022/01/03 01:36:52;;;;;;;6.63;6.43;;;;;;;10.98;69.68;100134.44;674176;29;45198;-72
2022/01/03 01:37:18;;;;;;;3.55;3.45;;;;;;;10.99;69.76;100138.00;673467;29;69489;-72
2022/01/03 01:37:41;;;;;;;4.57;4.38;;;;;;;11.01;69.93;100138.63;671437;29;137954;-73
2022/01/03 01:38:04;;;;;;;5.80;5.60;;;;;;;11.03;69.69;100138.44;673673;29;69423;-73
2022/01/03 01:38:30;;;;;;;11.52;11.13;;;;;;;11.00;69.76;100129.69;674152;29;46521;-75
2022/01/03 01:38:56;;;;;;;11.50;11.02;;;;;;;10.97;69.82;100140.91;673139;29;137702;-73
2022/01/03 01:39:19;;;;;;;11.32;10.88;;;;;;;11.00;69.84;100139.66;670126;29;138171;-73
2022/01/03 01:39:52;;;;;;;29.00;27.83;;;;;;;10.99;69.74;100133.41;673074;29;96947;-73
2022/01/03 01:40:15;;;;;;;21.23;20.42;;;;;;;10.97;69.95;100132.78;674742;29;69469;-72
2022/01/03 01:40:44;;;;;;;17.92;17.23;;;;;;;10.99;69.81;100136.13;673524;29;92319;-72
2022/01/03 01:41:07;;;;;;;31.60;30.23;;;;;;;10.96;69.94;100125.69;672145;29;137315;-74
2022/01/03 01:41:37;;;;;;;37.03;35.42;;;;;;;10.95;70.15;100128.59;674576;28;161403;-73
2022/01/03 01:42:01;;;;;;;26.45;25.20;;;;;;;10.96;70.25;100135.69;677382;28;105454;-72
2022/01/03 01:42:25;;;;;;;14.75;14.15;;;;;;;10.94;70.03;100124.22;678053;29;13644;-72
2022/01/03 01:42:49;;;;;;;17.38;16.63;;;;;;;10.93;70.33;100128.78;677012;29;113644;-73
2022/01/03 01:43:13;;;;;;;42.28;40.40;;;;;;;10.93;70.30;100127.97;672431;29;90681;-73
2022/01/03 01:43:39;;;;;;;61.45;58.67;;;;;;;10.91;70.43;100141.66;671060;29;68612;-73
2022/01/03 01:44:02;;;;;;;107.75;102.95;;;;;;;10.99;70.32;100136.13;669558;29;36977;-72
2022/01/03 01:44:25;;;;;;;65.57;62.75;;;;;;;11.02;70.13;100126.81;672279;29;46370;-72
2022/01/03 01:44:53;;;;;;;81.85;78.20;;;;;;;11.03;70.07;100127.63;670188;29;61594;-73
2022/01/03 01:45:18;;;;;;;94.07;90.07;;;;;;;11.00;69.94;100123.44;673553;29;136336;-74
2022/01/03 01:45:42;;;;;;;48.63;46.53;;;;;;;10.98;70.14;100123.63;679048;28;68343;-73
2022/01/03 01:46:05;;;;;;;55.05;52.70;;;;;;;10.95;70.05;100121.31;678137;28;92657;-73
2022/01/03 01:46:28;;;;;;;54.67;52.33;;;;;;;10.96;70.18;100124.88;676813;29;77662;-72
2022/01/03 01:47:03;;;;;;;46.55;44.55;;;;;;;10.95;70.28;100136.72;671788;29;137748;-74
2022/01/03 01:47:26;;;;;;;64.63;61.85;;;;;;;10.98;70.11;100122.81;669430;29;137589;-73
2022/01/03 01:47:48;;;;;;;76.55;73.18;;;;;;;10.95;70.31;100118.63;676556;29;44427;-72
2022/01/03 01:48:12;;;;;;;117.22;112.15;;;;;;;10.98;70.01;100128.22;674311;29;44393;-72
2022/01/03 01:48:40;;;;;;;132.35;126.50;;;;;;;10.94;69.91;100122.38;675807;29;92368;-72
2022/01/03 01:49:15;;;;;;;91.68;87.38;;;;;;;11.00;69.97;100132.41;671915;29;137556;-72
2022/01/03 01:49:38;;;;;;;95.80;91.60;;;;;;;11.02;70.27;100124.09;674334;29;136343;-73
2022/01/03 01:50:04;;;;;;;71.00;67.90;;;;;;;11.00;70.24;100131.53;672755;29;92421;-72
2022/01/03 01:50:26;;;;;;;58.28;55.78;;;;;;;11.01;70.15;100125.13;673057;29;137626;-73
2022/01/03 01:50:50;;;;;;;50.38;48.17;;;;;;;10.96;70.09;100125.69;674703;29;45276;-72
2022/01/03 01:51:13;;;;;;;35.40;33.95;;;;;;;10.96;70.17;100120.31;674740;29;90239;-72
2022/01/03 01:51:37;;;;;;;7.70;7.45;;;;;;;10.96;70.14;100117.59;676755;29;69470;-73
2022/01/03 01:52:02;;;;;;;8.00;7.70;;;;;;;10.96;70.14;100120.31;670832;29;160819;-72
2022/01/03 01:52:34;;;;;;;5.72;5.53;;;;;;;10.94;70.12;100118.81;671678;29;138456;-73
2022/01/03 01:52:56;;;;;;;9.73;9.35;;;;;;;10.89;70.46;100114.00;668942;29;136401;-73
2022/01/03 01:53:22;;;;;;;9.27;8.98;;;;;;;10.87;70.27;100113.34;672829;29;45100;-72
2022/01/03 01:53:45;;;;;;;26.63;25.48;;;;;;;10.84;70.47;100110.22;670745;29;111443;-73
2022/01/03 01:54:12;;;;;;;38.25;36.55;;;;;;;10.85;70.42;100109.19;670949;29;68602;-73